createdAt,value
2022-11-24T00:00:28.656Z,-3.61
2022-11-24T00:02:55.669Z,-3.65
2022-11-24T00:05:23.782Z,-3.64
2022-11-24T00:07:50.617Z,-3.63
2022-11-24T00:10:17.677Z,-3.61
2022-11-24T00:12:44.565Z,-3.58
2022-11-24T00:15:11.365Z,-3.57
2022-11-24T00:17:38.181Z,-3.57
2022-11-24T00:20:05.824Z,-3.60
2022-11-24T00:22:32.796Z,-3.62
2022-11-24T00:24:59.668Z,-3.58
2022-11-24T00:27:26.543Z,-3.59
2022-11-24T00:29:53.563Z,-3.56
2022-11-24T00:32:20.400Z,-3.59
2022-11-24T00:34:47.465Z,-3.61
2022-11-24T00:37:14.534Z,-3.63
2022-11-24T00:39:41.305Z,-3.66
2022-11-24T00:42:08.218Z,-3.61
2022-11-24T00:44:35.334Z,-3.61
2022-11-24T00:47:04.381Z,-3.61
2022-11-24T00:49:31.328Z,-3.65
2022-11-24T00:51:58.247Z,-3.65
2022-11-24T00:54:25.023Z,-3.64
2022-11-24T00:56:51.886Z,-3.61
2022-11-24T00:59:24.811Z,-3.63
2022-11-24T01:01:52.192Z,-3.64
2022-11-24T01:04:19.100Z,-3.63
2022-11-24T01:06:45.910Z,-3.64
2022-11-24T01:09:12.888Z,-3.66
2022-11-24T01:11:58.354Z,-3.65
2022-11-24T01:14:25.559Z,-3.64
2022-11-24T01:16:52.411Z,-3.68
2022-11-24T01:19:19.472Z,-3.68
2022-11-24T01:21:46.299Z,-3.68
2022-11-24T01:24:13.391Z,-3.66
2022-11-24T01:26:40.293Z,-3.65
2022-11-24T01:29:07.247Z,-3.65
2022-11-24T01:31:34.356Z,-3.63
2022-11-24T01:34:01.202Z,-3.63
2022-11-24T01:36:28.053Z,-3.63
2022-11-24T01:38:55.048Z,-3.61
2022-11-24T01:41:23.039Z,-3.63
2022-11-24T01:43:50.071Z,-3.67
2022-11-24T01:46:24.879Z,-3.70
2022-11-24T01:49:04.049Z,-3.74
2022-11-24T01:51:31.781Z,-3.76
2022-11-24T01:54:12.074Z,-3.83
2022-11-24T01:56:44.428Z,-3.79
2022-11-24T01:59:11.653Z,-3.78
2022-11-24T02:01:38.575Z,-3.77
2022-11-24T02:04:06.779Z,-3.79
2022-11-24T02:06:33.681Z,-3.77
2022-11-24T02:09:00.458Z,-3.76
2022-11-24T02:11:28.753Z,-3.80
2022-11-24T02:13:55.712Z,-3.81
2022-11-24T02:16:22.532Z,-3.85
2022-11-24T02:18:49.630Z,-3.87
2022-11-24T02:21:16.504Z,-3.89
2022-11-24T02:23:49.703Z,-3.96
2022-11-24T02:26:35.123Z,-3.99
2022-11-24T02:29:02.355Z,-4.04
2022-11-24T02:31:29.254Z,-4.05
2022-11-24T02:33:56.203Z,-4.03
2022-11-24T02:36:23.042Z,-4.04
2022-11-24T02:38:49.896Z,-4.06
2022-11-24T02:41:18.248Z,-4.09
2022-11-24T02:43:58.862Z,-4.11
2022-11-24T02:46:25.867Z,-4.11
2022-11-24T02:48:52.704Z,-4.13
2022-11-24T02:51:25.568Z,-4.18
2022-11-24T02:53:53.041Z,-4.19
2022-11-24T02:56:19.842Z,-4.23
2022-11-24T02:58:46.690Z,-4.23
2022-11-24T03:01:13.794Z,-4.25
2022-11-24T03:03:40.669Z,-4.31
2022-11-24T03:06:08.263Z,-4.34
2022-11-24T03:08:35.180Z,-4.31
2022-11-24T03:11:02.437Z,-4.27
2022-11-24T03:13:29.316Z,-4.30
2022-11-24T03:15:56.391Z,-4.31
2022-11-24T03:18:23.255Z,-4.33
2022-11-24T03:20:50.093Z,-4.35
2022-11-24T03:23:17.056Z,-4.36
2022-11-24T03:25:43.939Z,-4.39
2022-11-24T03:28:10.815Z,-4.45
2022-11-24T03:30:37.834Z,-4.44
2022-11-24T03:33:05.225Z,-4.46
2022-11-24T03:35:32.064Z,-4.51
2022-11-24T03:37:59.090Z,-4.55
2022-11-24T03:40:25.930Z,-4.60
2022-11-24T03:42:52.743Z,-4.54
2022-11-24T03:48:07.425Z,-4.55
2022-11-24T03:50:34.291Z,-4.55
2022-11-24T03:53:01.103Z,-4.58
2022-11-24T03:55:28.073Z,-4.61
2022-11-24T03:57:55.017Z,-4.59
2022-11-24T04:00:21.859Z,-4.54
2022-11-24T04:02:48.872Z,-4.52
2022-11-24T04:05:15.853Z,-4.54
2022-11-24T04:07:42.736Z,-4.61
2022-11-24T04:10:09.869Z,-4.63
2022-11-24T04:12:46.750Z,-4.58
2022-11-24T04:15:21.689Z,-4.58
2022-11-24T04:17:50.149Z,-4.60
2022-11-24T04:20:17.202Z,-4.62
2022-11-24T04:22:44.220Z,-4.62
2022-11-24T04:25:11.405Z,-4.61
2022-11-24T04:27:39.511Z,-4.62
2022-11-24T04:30:06.857Z,-4.60
2022-11-24T04:32:33.766Z,-4.62
2022-11-24T04:35:00.948Z,-4.66
2022-11-24T04:37:28.221Z,-4.79
2022-11-24T04:39:55.617Z,-4.76
2022-11-24T04:42:22.450Z,-4.80
2022-11-24T04:44:49.257Z,-4.81
2022-11-24T04:47:16.693Z,-4.83
2022-11-24T04:49:43.655Z,-4.81
2022-11-24T04:52:11.624Z,-4.77
2022-11-24T04:54:38.575Z,-4.75
2022-11-24T04:57:05.416Z,-4.69
2022-11-24T04:59:32.260Z,-4.68
2022-11-24T05:01:59.191Z,-4.71
2022-11-24T05:04:39.880Z,-4.70
2022-11-24T05:07:16.447Z,-4.71
2022-11-24T05:10:03.821Z,-4.69
2022-11-24T05:12:31.565Z,-4.69
2022-11-24T05:14:59.257Z,-4.67
2022-11-24T05:17:35.903Z,-4.63
2022-11-24T05:20:02.999Z,-4.57
2022-11-24T05:22:30.527Z,-4.50
2022-11-24T05:24:57.843Z,-4.45
2022-11-24T05:27:24.819Z,-4.48
2022-11-24T05:29:51.659Z,-4.51
2022-11-24T05:32:18.519Z,-4.49
2022-11-24T05:34:45.687Z,-4.48
2022-11-24T05:37:13.509Z,-4.48
2022-11-24T05:39:40.375Z,-4.52
2022-11-24T05:42:26.239Z,-4.55
2022-11-24T05:44:53.390Z,-4.56
2022-11-24T05:47:20.459Z,-4.51
2022-11-24T05:49:47.422Z,-4.54
2022-11-24T05:52:14.383Z,-4.61
2022-11-24T05:54:41.180Z,-4.59
2022-11-24T05:57:08.011Z,-4.59
2022-11-24T05:59:34.985Z,-4.55
2022-11-24T06:02:01.991Z,-4.48
2022-11-24T06:04:29.005Z,-4.44
2022-11-24T06:06:55.771Z,-4.42
2022-11-24T06:09:24.615Z,-4.43
2022-11-24T06:11:51.493Z,-4.39
2022-11-24T06:14:18.319Z,-4.38
2022-11-24T06:16:45.424Z,-4.37
2022-11-24T06:19:12.297Z,-4.31
2022-11-24T06:21:39.123Z,-4.24
2022-11-24T06:24:06.181Z,-4.20
2022-11-24T06:26:33.031Z,-4.21
2022-11-24T06:28:59.896Z,-4.19
2022-11-24T06:31:26.915Z,-4.17
2022-11-24T06:33:53.777Z,-4.11
2022-11-24T06:36:20.659Z,-4.11
2022-11-24T06:38:47.563Z,-4.06
2022-11-24T06:41:14.984Z,-4.04
2022-11-24T06:43:42.091Z,-4.07
2022-11-24T06:46:09.172Z,-4.02
2022-11-24T06:48:36.060Z,-3.99
2022-11-24T06:51:04.582Z,-3.96
2022-11-24T06:53:31.923Z,-3.96
2022-11-24T06:56:02.455Z,-3.98
2022-11-24T06:58:29.307Z,-3.95
2022-11-24T07:00:56.222Z,-3.92
2022-11-24T07:03:23.194Z,-3.87
2022-11-24T07:05:50.085Z,-3.81
2022-11-24T07:08:18.119Z,-3.76
2022-11-24T07:10:48.121Z,-3.76
2022-11-24T07:13:15.195Z,-3.79
2022-11-24T07:15:42.101Z,-3.73
2022-11-24T07:18:08.901Z,-3.72
2022-11-24T07:20:35.938Z,-3.70
2022-11-24T07:23:04.431Z,-3.71
2022-11-24T07:25:38.713Z,-3.67
2022-11-24T07:28:05.984Z,-3.62
2022-11-24T07:30:32.984Z,-3.64
2022-11-24T07:33:01.251Z,-3.65
2022-11-24T07:35:32.692Z,-3.74
2022-11-24T07:37:59.585Z,-3.69
2022-11-24T07:40:30.351Z,-3.70
2022-11-24T07:42:57.510Z,-3.67
2022-11-24T07:45:26.472Z,-3.70
2022-11-24T07:47:53.425Z,-3.67
2022-11-24T07:50:20.786Z,-3.69
2022-11-24T07:52:48.231Z,-3.68
2022-11-24T07:55:15.423Z,-3.60
2022-11-24T07:57:42.337Z,-3.50
2022-11-24T08:00:12.264Z,-3.56
2022-11-24T08:02:39.406Z,-3.58
2022-11-24T08:05:06.721Z,-3.64
2022-11-24T08:07:33.720Z,-3.77
2022-11-24T08:10:00.703Z,-3.83
2022-11-24T08:12:29.875Z,-3.84
2022-11-24T08:14:56.824Z,-3.83
2022-11-24T08:17:23.889Z,-3.77
2022-11-24T08:19:50.912Z,-3.75
2022-11-24T08:22:19.231Z,-3.72
2022-11-24T08:24:49.857Z,-3.68
2022-11-24T08:27:17.134Z,-3.59
2022-11-24T08:29:44.795Z,-3.51
2022-11-24T08:32:15.132Z,-3.51
2022-11-24T08:34:45.986Z,-3.47
2022-11-24T08:37:18.799Z,-3.46
2022-11-24T08:39:45.991Z,-3.42
2022-11-24T08:42:12.904Z,-3.37
2022-11-24T08:44:39.775Z,-3.31
2022-11-24T08:47:06.833Z,-3.23
2022-11-24T08:49:33.755Z,-3.19
2022-11-24T08:52:00.604Z,-3.12
2022-11-24T08:54:28.232Z,-3.17
2022-11-24T08:56:55.199Z,-3.30
2022-11-24T08:59:22.188Z,-3.33
2022-11-24T09:01:49.547Z,-3.43
2022-11-24T09:04:16.633Z,-3.57
2022-11-24T09:06:43.487Z,-3.60
2022-11-24T09:09:14.430Z,-3.83
2022-11-24T09:11:41.517Z,-3.97
2022-11-24T09:14:08.479Z,-4.00
2022-11-24T09:16:35.856Z,-3.97
2022-11-24T09:19:04.073Z,-4.05
2022-11-24T09:21:31.530Z,-4.03
2022-11-24T09:23:58.431Z,-4.08
2022-11-24T09:26:26.501Z,-4.06
2022-11-24T09:28:56.914Z,-3.96
2022-11-24T09:31:25.115Z,-3.92
2022-11-24T09:33:52.639Z,-3.83
2022-11-24T09:36:19.590Z,-3.73
2022-11-24T09:38:46.518Z,-3.70
2022-11-24T09:41:19.429Z,-3.65
2022-11-24T09:43:49.474Z,-3.57
2022-11-24T09:46:19.140Z,-3.55
2022-11-24T09:48:50.265Z,-3.69
2022-11-24T09:51:20.259Z,-3.68
2022-11-24T09:53:48.996Z,-3.62
2022-11-24T09:56:18.378Z,-3.53
2022-11-24T09:58:54.927Z,-3.54
2022-11-24T10:01:26.873Z,-3.40
2022-11-24T10:03:54.523Z,-3.22
2022-11-24T10:06:25.540Z,-3.02
2022-11-24T10:09:05.734Z,-3.03
2022-11-24T10:11:48.686Z,-3.25
2022-11-24T10:14:19.041Z,-3.38
2022-11-24T10:16:58.189Z,-3.36
2022-11-24T10:19:36.312Z,-3.43
2022-11-24T10:22:03.970Z,-3.68
2022-11-24T10:24:50.703Z,-3.67
2022-11-24T10:27:22.687Z,-3.69
2022-11-24T10:29:50.156Z,-3.63
2022-11-24T10:32:28.033Z,-3.58
2022-11-24T10:34:55.132Z,-3.54
2022-11-24T10:37:29.316Z,-3.54
2022-11-24T10:40:00.887Z,-3.53
2022-11-24T10:42:37.084Z,-3.49
2022-11-24T10:45:17.410Z,-3.51
2022-11-24T10:47:44.825Z,-3.56
2022-11-24T10:50:22.267Z,-3.63
2022-11-24T10:53:09.419Z,-3.69
2022-11-24T10:55:54.484Z,-3.75
2022-11-24T10:58:26.862Z,-3.77
2022-11-24T11:00:58.973Z,-3.75
2022-11-24T11:03:27.289Z,-3.77
2022-11-24T11:05:55.820Z,-3.77
2022-11-24T11:08:27.045Z,-3.81
2022-11-24T11:11:15.071Z,-3.81
2022-11-24T11:13:52.033Z,-3.90
2022-11-24T11:16:26.343Z,-3.95
2022-11-24T11:18:53.530Z,-3.96
2022-11-24T11:21:39.880Z,-3.99
2022-11-24T11:24:17.280Z,-4.12
2022-11-24T11:26:44.811Z,-4.22
2022-11-24T11:35:05.535Z,-4.11
2022-11-24T11:37:32.465Z,-4.24
2022-11-24T11:39:59.367Z,-4.32
2022-11-24T11:43:00.737Z,-4.39
2022-11-24T11:45:37.665Z,-4.40
2022-11-24T11:48:05.886Z,-4.34
2022-11-24T11:51:14.767Z,-4.38
2022-11-24T11:53:36.922Z,-4.46
2022-11-24T11:56:27.420Z,-4.48
2022-11-24T11:59:05.033Z,-4.54
2022-11-24T12:01:58.568Z,-4.62
2022-11-24T12:04:40.629Z,-4.55
2022-11-24T12:07:16.810Z,-4.55
2022-11-24T12:09:55.965Z,-4.57
2022-11-24T12:12:25.386Z,-4.55
2022-11-24T12:14:55.235Z,-4.57
2022-11-24T12:17:41.212Z,-4.53
2022-11-24T12:20:10.541Z,-4.54
2022-11-24T12:22:42.139Z,-4.50
2022-11-24T12:25:29.182Z,-4.52
2022-11-24T12:28:01.483Z,-4.56
2022-11-24T12:30:30.820Z,-4.63
2022-11-24T12:33:00.547Z,-4.75
2022-11-24T12:35:45.999Z,-4.77
2022-11-24T12:38:20.033Z,-4.79
2022-11-24T12:41:33.554Z,-4.82
2022-11-24T12:43:53.653Z,-4.88
2022-11-24T12:46:33.489Z,-4.88
2022-11-24T12:49:00.458Z,-4.85
2022-11-24T12:51:35.937Z,-4.97
2022-11-24T12:54:03.511Z,-4.98
2022-11-24T12:56:49.068Z,-5.00
2022-11-24T12:59:19.070Z,-4.99
2022-11-24T13:01:51.441Z,-4.99
2022-11-24T13:04:18.423Z,-4.96
2022-11-24T13:06:55.003Z,-4.98
2022-11-24T13:09:22.059Z,-5.04
2022-11-24T13:11:49.821Z,-5.08
2022-11-24T13:14:19.923Z,-5.08
2022-11-24T13:17:21.822Z,-5.09
2022-11-24T13:19:41.821Z,-5.12
2022-11-24T13:22:09.056Z,-5.06
2022-11-24T13:24:37.085Z,-5.05
2022-11-24T13:27:13.455Z,-5.15
2022-11-24T13:29:42.270Z,-5.13
2022-11-24T13:32:11.975Z,-5.14
2022-11-24T13:34:38.951Z,-5.19
2022-11-24T13:37:35.490Z,-5.20
2022-11-24T13:40:24.912Z,-5.24
2022-11-24T13:42:54.948Z,-5.20
2022-11-24T13:45:49.602Z,-5.21
2022-11-24T13:48:19.568Z,-5.21
2022-11-24T13:50:59.030Z,-5.18
2022-11-24T13:53:29.162Z,-5.18
2022-11-24T13:56:03.016Z,-5.20
2022-11-24T13:58:31.343Z,-5.20
2022-11-24T14:01:04.602Z,-5.24
2022-11-24T14:03:32.624Z,-5.29
2022-11-24T14:05:59.624Z,-5.32
2022-11-24T14:08:45.176Z,-5.40
2022-11-24T14:11:14.168Z,-5.45
2022-11-24T14:13:40.954Z,-5.48
2022-11-24T14:16:11.537Z,-5.49
2022-11-24T14:18:39.244Z,-5.50
2022-11-24T14:21:21.884Z,-5.52
2022-11-24T14:23:53.266Z,-5.42
2022-11-24T14:26:21.843Z,-5.42
2022-11-24T14:28:48.980Z,-5.43
2022-11-24T14:31:20.549Z,-5.43
2022-11-24T14:33:47.978Z,-5.40
2022-11-24T14:36:15.579Z,-5.42
2022-11-24T14:38:42.784Z,-5.48
2022-11-24T14:41:28.990Z,-5.43
2022-11-24T14:44:06.324Z,-5.42
2022-11-24T14:46:33.483Z,-5.45
2022-11-24T14:49:00.404Z,-5.50
2022-11-24T14:51:28.458Z,-5.54
2022-11-24T14:54:02.838Z,-5.55
2022-11-24T14:56:35.770Z,-5.53
2022-11-24T14:59:03.488Z,-5.56
2022-11-24T15:01:32.875Z,-5.58
2022-11-24T15:04:32.833Z,-5.60
2022-11-24T15:07:21.176Z,-5.63
2022-11-24T15:09:51.352Z,-5.63
2022-11-24T15:12:31.183Z,-5.66
2022-11-24T15:14:59.338Z,-5.58
2022-11-24T15:17:27.515Z,-5.68
2022-11-24T15:19:57.121Z,-5.68
2022-11-24T15:22:27.473Z,-5.68
2022-11-24T15:24:54.629Z,-5.73
2022-11-24T15:27:21.687Z,-5.76
2022-11-24T15:29:48.468Z,-5.80
2022-11-24T15:32:15.771Z,-5.83
2022-11-24T15:34:43.040Z,-5.88
2022-11-24T15:37:10.039Z,-5.92
2022-11-24T15:39:37.259Z,-5.94
2022-11-24T15:42:05.244Z,-5.97
2022-11-24T15:44:33.248Z,-5.94
2022-11-24T15:47:01.672Z,-5.98
2022-11-24T15:49:28.820Z,-5.98
2022-11-24T15:51:55.692Z,-6.04
2022-11-24T15:54:23.999Z,-6.08
2022-11-24T15:56:51.124Z,-6.10
2022-11-24T15:59:20.575Z,-6.12
2022-11-24T16:01:50.032Z,-6.09
2022-11-24T16:04:17.200Z,-6.08
2022-11-24T16:06:44.184Z,-6.12
2022-11-24T16:09:12.940Z,-6.11
2022-11-24T16:11:40.669Z,-6.09
2022-11-24T16:14:07.719Z,-6.06
2022-11-24T16:16:34.993Z,-6.06
2022-11-24T16:19:02.014Z,-6.06
2022-11-24T16:21:38.575Z,-6.00
2022-11-24T16:24:05.720Z,-5.96
2022-11-24T16:26:41.299Z,-5.97
2022-11-24T16:29:08.853Z,-5.98
2022-11-24T16:31:36.672Z,-5.98
2022-11-24T16:34:04.502Z,-5.98
2022-11-24T16:36:38.205Z,-5.99
2022-11-24T16:39:05.333Z,-6.05
2022-11-24T16:41:33.356Z,-6.05
2022-11-24T16:44:10.652Z,-6.07
2022-11-24T16:46:38.008Z,-6.05
2022-11-24T16:49:05.261Z,-6.07
2022-11-24T16:51:34.995Z,-6.15
2022-11-24T16:54:04.195Z,-6.19
2022-11-24T16:56:33.084Z,-6.20
2022-11-24T16:59:00.369Z,-6.19
2022-11-24T17:01:28.066Z,-6.21
2022-11-24T17:03:55.577Z,-6.22
2022-11-24T17:06:22.656Z,-6.24
2022-11-24T17:08:49.714Z,-6.21
2022-11-24T17:11:22.536Z,-6.23
2022-11-24T17:14:11.186Z,-6.27
2022-11-24T17:16:38.643Z,-6.26
2022-11-24T17:19:06.973Z,-6.25
2022-11-24T17:21:33.919Z,-6.24
2022-11-24T17:24:01.952Z,-6.26
2022-11-24T17:26:36.952Z,-6.28
2022-11-24T17:37:29.583Z,-6.16
2022-11-24T17:40:26.962Z,-6.20
2022-11-24T17:42:53.533Z,-6.20
2022-11-24T17:45:23.013Z,-6.26
2022-11-24T17:50:45.992Z,-6.33
2022-11-24T17:53:16.036Z,-6.34
2022-11-24T17:56:10.183Z,-6.37
2022-11-24T17:58:43.980Z,-6.40
2022-11-24T18:01:14.252Z,-6.35
2022-11-24T18:03:53.189Z,-6.36
2022-11-24T18:06:25.803Z,-6.35
2022-11-24T18:11:58.185Z,-6.26
2022-11-24T18:14:36.936Z,-6.24
2022-11-24T18:17:32.133Z,-6.28
2022-11-24T18:20:00.097Z,-6.30
2022-11-24T18:22:50.068Z,-6.29
2022-11-24T18:25:14.730Z,-6.30
2022-11-24T18:30:24.824Z,-6.31
2022-11-24T18:32:51.849Z,-6.36
2022-11-24T18:35:18.887Z,-6.38
2022-11-24T18:37:46.066Z,-6.37
2022-11-24T18:42:59.151Z,-6.34
2022-11-24T18:45:28.763Z,-6.37
2022-11-24T18:47:56.916Z,-6.34
2022-11-24T18:50:29.595Z,-6.37
2022-11-24T18:52:59.615Z,-6.38
2022-11-24T18:55:27.257Z,-6.41
2022-11-24T18:57:56.346Z,-6.43
2022-11-24T19:00:24.627Z,-6.44
2022-11-24T19:06:14.082Z,-6.45
2022-11-24T19:08:41.155Z,-6.41
2022-11-24T19:11:10.960Z,-6.40
2022-11-24T19:13:37.931Z,-6.43
2022-11-24T19:16:11.307Z,-6.51
2022-11-24T19:18:40.701Z,-6.47
2022-11-24T19:23:48.797Z,-6.42
2022-11-24T19:26:16.083Z,-6.47
2022-11-24T19:28:43.636Z,-6.48
2022-11-24T19:31:12.187Z,-6.47
2022-11-24T19:33:40.566Z,-6.45
2022-11-24T19:36:08.600Z,-6.46
2022-11-24T19:38:46.236Z,-6.48
2022-11-24T19:44:14.631Z,-6.53
2022-11-24T19:46:48.502Z,-6.58
2022-11-24T19:49:25.482Z,-6.60
2022-11-24T19:51:53.691Z,-6.56
2022-11-24T19:54:21.006Z,-6.56
2022-11-24T19:56:57.658Z,-6.55
2022-11-24T19:59:26.607Z,-6.53
2022-11-24T20:01:54.525Z,-6.51
2022-11-24T20:04:21.728Z,-6.47
2022-11-24T20:06:48.833Z,-6.52
2022-11-24T20:09:17.032Z,-6.54
2022-11-24T20:14:36.978Z,-6.45
2022-11-24T20:17:10.708Z,-6.45
2022-11-24T20:19:40.437Z,-6.46
2022-11-24T20:22:11.617Z,-6.47
2022-11-24T20:24:52.131Z,-6.47
2022-11-24T20:27:26.655Z,-6.42
2022-11-24T20:29:55.003Z,-6.41
2022-11-24T20:32:22.542Z,-6.38
2022-11-24T20:34:50.855Z,-6.38
2022-11-24T20:37:19.052Z,-6.35
2022-11-24T20:39:46.459Z,-6.33
2022-11-24T20:44:54.093Z,-6.36
2022-11-24T20:47:21.137Z,-6.36
2022-11-24T20:49:48.047Z,-6.32
2022-11-24T20:52:14.923Z,-6.37
2022-11-24T20:54:45.150Z,-6.37
2022-11-24T20:57:15.162Z,-6.36
2022-11-24T20:59:43.146Z,-6.37
2022-11-24T21:02:10.869Z,-6.39
2022-11-24T21:04:49.612Z,-6.42
2022-11-24T21:12:43.372Z,-6.47
2022-11-24T21:15:10.323Z,-6.41
2022-11-24T21:17:37.193Z,-6.49
2022-11-24T21:20:04.627Z,-6.49
2022-11-24T21:22:32.664Z,-6.50
2022-11-24T21:25:01.792Z,-6.50
2022-11-24T21:27:31.339Z,-6.45
2022-11-24T21:29:58.309Z,-6.48
2022-11-24T21:32:26.708Z,-6.54
2022-11-24T21:34:53.952Z,-6.52
2022-11-24T21:37:20.950Z,-6.50
2022-11-24T21:39:51.190Z,-6.48
2022-11-24T21:42:18.164Z,-6.48
2022-11-24T21:44:45.000Z,-6.43
2022-11-24T21:47:36.695Z,-6.42
2022-11-24T21:50:04.113Z,-6.44
2022-11-24T21:52:30.943Z,-6.46
2022-11-24T21:54:58.079Z,-6.48
2022-11-24T21:57:24.983Z,-6.49
2022-11-24T21:59:51.863Z,-6.44
2022-11-24T22:02:19.183Z,-6.40
2022-11-24T22:04:46.098Z,-6.40
2022-11-24T22:07:13.166Z,-6.37
2022-11-24T22:09:39.998Z,-6.37
2022-11-24T22:12:07.060Z,-6.37
2022-11-24T22:14:37.502Z,-6.42
2022-11-24T22:17:06.931Z,-6.40
2022-11-24T22:19:33.809Z,-6.42
2022-11-24T22:22:00.640Z,-6.42
2022-11-24T22:24:27.596Z,-6.52
2022-11-24T22:26:54.893Z,-6.55
2022-11-24T22:29:21.753Z,-6.55
2022-11-24T22:31:48.811Z,-6.59
2022-11-24T22:34:15.905Z,-6.65
2022-11-24T22:36:42.660Z,-6.64
2022-11-24T22:39:11.144Z,-6.63
2022-11-24T22:41:38.209Z,-6.58
2022-11-24T22:44:05.232Z,-6.53
2022-11-24T22:46:32.370Z,-6.50
2022-11-24T22:48:59.996Z,-6.48
2022-11-24T22:51:27.685Z,-6.49
2022-11-24T22:53:56.964Z,-6.44
2022-11-24T22:56:24.094Z,-6.42
2022-11-24T22:58:53.431Z,-6.40
2022-11-24T23:01:21.395Z,-6.38
2022-11-24T23:03:49.110Z,-6.37
2022-11-24T23:06:21.940Z,-6.38
2022-11-24T23:08:49.029Z,-6.40
2022-11-24T23:11:17.874Z,-6.40
2022-11-24T23:13:44.954Z,-6.40
2022-11-24T23:16:13.634Z,-6.36
2022-11-24T23:18:40.745Z,-6.35
2022-11-24T23:21:08.451Z,-6.43
2022-11-24T23:23:35.381Z,-6.45
2022-11-24T23:26:08.218Z,-6.46
2022-11-24T23:28:36.663Z,-6.51
2022-11-24T23:31:07.634Z,-6.55
2022-11-24T23:33:34.499Z,-6.56
2022-11-24T23:36:20.506Z,-6.55
2022-11-24T23:38:47.939Z,-6.56
2022-11-24T23:41:16.815Z,-6.56
2022-11-24T23:43:44.090Z,-6.59
2022-11-24T23:46:12.193Z,-6.60
2022-11-24T23:48:40.554Z,-6.52
2022-11-24T23:51:08.348Z,-6.51
2022-11-24T23:53:35.536Z,-6.48
2022-11-24T23:56:02.692Z,-6.48
2022-11-24T23:58:29.871Z,-6.52
